sensor_id;sensor_type;location;lat;lon;timestamp;pressure;altitude;pressure_sealevel;temperature;humidity
9225;BME280;4647;48.072;11.616;2023-02-12T00:01:28;97099.00;;;3.66;62.16
9225;BME280;4647;48.072;11.616;2023-02-12T00:03:57;97093.63;;;3.66;62.01
9225;BME280;4647;48.072;11.616;2023-02-12T00:06:26;97109.66;;;3.75;61.30
9225;BME280;4647;48.072;11.616;2023-02-12T00:08:55;97104.16;;;3.71;61.59
9225;BME280;4647;48.072;11.616;2023-02-12T00:11:26;97086.56;;;3.61;61.90
9225;BME280;4647;48.072;11.616;2023-02-12T00:13:55;97113.78;;;3.81;61.63
9225;BME280;4647;48.072;11.616;2023-02-12T00:16:28;97082.13;;;3.65;61.75
9225;BME280;4647;48.072;11.616;2023-02-12T00:18:58;97071.44;;;3.57;61.64
9225;BME280;4647;48.072;11.616;2023-02-12T00:21:27;97094.69;;;3.74;61.89
9225;BME280;4647;48.072;11.616;2023-02-12T00:23:56;97096.13;;;3.71;61.79
9225;BME280;4647;48.072;11.616;2023-02-12T00:26:24;97073.63;;;3.63;61.47
9225;BME280;4647;48.072;11.616;2023-02-12T00:28:53;97052.22;;;3.46;61.27
9225;BME280;4647;48.072;11.616;2023-02-12T00:31:24;97093.66;;;3.49;61.81
9225;BME280;4647;48.072;11.616;2023-02-12T00:33:56;97087.22;;;3.41;62.50
9225;BME280;4647;48.072;11.616;2023-02-12T00:36:26;97006.50;;;2.78;62.31
9225;BME280;4647;48.072;11.616;2023-02-12T00:38:56;97077.16;;;3.38;61.51
9225;BME280;4647;48.072;11.616;2023-02-12T00:41:25;97060.63;;;3.19;61.96
9225;BME280;4647;48.072;11.616;2023-02-12T00:43:53;97086.41;;;3.49;62.09
9225;BME280;4647;48.072;11.616;2023-02-12T00:46:22;97068.97;;;3.26;62.30
9225;BME280;4647;48.072;11.616;2023-02-12T00:48:51;97086.75;;;3.39;62.53
9225;BME280;4647;48.072;11.616;2023-02-12T00:51:22;97080.00;;;3.33;62.93
9225;BME280;4647;48.072;11.616;2023-02-12T00:53:51;97079.38;;;3.36;63.13
9225;BME280;4647;48.072;11.616;2023-02-12T00:56:19;97040.84;;;2.94;63.39
9225;BME280;4647;48.072;11.616;2023-02-12T00:58:48;97080.63;;;3.21;63.72
9225;BME280;4647;48.072;11.616;2023-02-12T01:01:17;97064.59;;;3.13;64.07
9225;BME280;4647;48.072;11.616;2023-02-12T01:03:46;97045.69;;;2.83;64.17
9225;BME280;4647;48.072;11.616;2023-02-12T01:06:14;97094.31;;;3.28;63.85
9225;BME280;4647;48.072;11.616;2023-02-12T01:08:45;97103.78;;;3.43;63.27
9225;BME280;4647;48.072;11.616;2023-02-12T01:11:17;97079.38;;;3.36;63.09
9225;BME280;4647;48.072;11.616;2023-02-12T01:13:45;97069.63;;;3.14;63.34
9225;BME280;4647;48.072;11.616;2023-02-12T01:16:16;97101.09;;;3.43;63.11
9225;BME280;4647;48.072;11.616;2023-02-12T01:18:45;97040.97;;;3.06;63.14
9225;BME280;4647;48.072;11.616;2023-02-12T01:21:17;97024.63;;;2.90;63.17
9225;BME280;4647;48.072;11.616;2023-02-12T01:23:49;97028.06;;;2.82;63.59
9225;BME280;4647;48.072;11.616;2023-02-12T01:26:18;97079.09;;;3.12;63.71
9225;BME280;4647;48.072;11.616;2023-02-12T01:28:49;97062.56;;;2.84;63.99
9225;BME280;4647;48.072;11.616;2023-02-12T01:31:19;97057.84;;;2.72;64.23
9225;BME280;4647;48.072;11.616;2023-02-12T01:33:49;97057.06;;;2.71;63.90
9225;BME280;4647;48.072;11.616;2023-02-12T01:36:18;97045.25;;;2.72;63.98
9225;BME280;4647;48.072;11.616;2023-02-12T01:38:49;97061.47;;;2.76;63.81
9225;BME280;4647;48.072;11.616;2023-02-12T01:41:20;97005.13;;;2.46;63.89
9225;BME280;4647;48.072;11.616;2023-02-12T01:44:10;97075.94;;;2.92;64.04
9225;BME280;4647;48.072;11.616;2023-02-12T01:46:41;97080.03;;;2.98;64.02
9225;BME280;4647;48.072;11.616;2023-02-12T01:49:14;97035.00;;;2.74;63.73
9225;BME280;4647;48.072;11.616;2023-02-12T01:51:45;97091.38;;;3.13;63.33
9225;BME280;4647;48.072;11.616;2023-02-12T01:54:19;97097.78;;;3.29;63.52
9225;BME280;4647;48.072;11.616;2023-02-12T01:56:50;97051.06;;;3.00;63.11
9225;BME280;4647;48.072;11.616;2023-02-12T01:59:19;97076.09;;;2.96;63.62
9225;BME280;4647;48.072;11.616;2023-02-12T02:01:48;97089.63;;;3.25;63.38
9225;BME280;4647;48.072;11.616;2023-02-12T02:04:20;97058.31;;;3.08;63.09
9225;BME280;4647;48.072;11.616;2023-02-12T02:06:54;97090.22;;;3.39;63.25
9225;BME280;4647;48.072;11.616;2023-02-12T02:09:27;97044.56;;;3.19;63.12
9225;BME280;4647;48.072;11.616;2023-02-12T02:11:56;97041.25;;;3.22;62.64
9225;BME280;4647;48.072;11.616;2023-02-12T02:14:38;97037.78;;;3.21;62.65
9225;BME280;4647;48.072;11.616;2023-02-12T02:17:26;97031.03;;;3.06;63.03
9225;BME280;4647;48.072;11.616;2023-02-12T02:23:00;97081.75;;;3.20;63.82
9225;BME280;4647;48.072;11.616;2023-02-12T02:26:00;97090.56;;;3.21;63.70
9225;BME280;4647;48.072;11.616;2023-02-12T02:28:52;97068.84;;;3.05;63.82
9225;BME280;4647;48.072;11.616;2023-02-12T02:31:31;97062.38;;;3.06;63.75
9225;BME280;4647;48.072;11.616;2023-02-12T02:34:07;97056.41;;;3.00;63.69
9225;BME280;4647;48.072;11.616;2023-02-12T02:36:41;97084.56;;;3.24;63.65
9225;BME280;4647;48.072;11.616;2023-02-12T02:39:16;97062.69;;;3.22;63.08
9225;BME280;4647;48.072;11.616;2023-02-12T02:41:52;97083.63;;;3.37;63.13
9225;BME280;4647;48.072;11.616;2023-02-12T02:44:25;97080.44;;;3.44;63.11
9225;BME280;4647;48.072;11.616;2023-02-12T02:47:01;97043.19;;;3.13;63.36
9225;BME280;4647;48.072;11.616;2023-02-12T02:49:36;97064.53;;;3.30;63.12
9225;BME280;4647;48.072;11.616;2023-02-12T02:52:08;97018.34;;;2.86;63.16
9225;BME280;4647;48.072;11.616;2023-02-12T02:54:41;97036.84;;;3.17;63.05
9225;BME280;4647;48.072;11.616;2023-02-12T02:57:14;97008.53;;;2.99;62.89
9225;BME280;4647;48.072;11.616;2023-02-12T02:59:49;97011.69;;;2.92;63.24
9225;BME280;4647;48.072;11.616;2023-02-12T03:02:25;97065.38;;;3.13;63.61
9225;BME280;4647;48.072;11.616;2023-02-12T03:04:58;97046.00;;;3.07;63.32
9225;BME280;4647;48.072;11.616;2023-02-12T03:07:32;97007.78;;;2.72;63.81
9225;BME280;4647;48.072;11.616;2023-02-12T03:10:05;97062.88;;;2.99;64.12
9225;BME280;4647;48.072;11.616;2023-02-12T03:12:37;97012.34;;;2.72;64.16
9225;BME280;4647;48.072;11.616;2023-02-12T03:15:11;97024.63;;;2.73;64.24
9225;BME280;4647;48.072;11.616;2023-02-12T03:17:46;97042.25;;;2.83;64.40
9225;BME280;4647;48.072;11.616;2023-02-12T03:20:18;97066.94;;;3.14;64.12
9225;BME280;4647;48.072;11.616;2023-02-12T03:22:50;97038.00;;;2.82;63.77
9225;BME280;4647;48.072;11.616;2023-02-12T03:25:24;97090.75;;;2.81;64.97
9225;BME280;4647;48.072;11.616;2023-02-12T03:28:00;97077.38;;;2.64;65.41
9225;BME280;4647;48.072;11.616;2023-02-12T03:30:37;97046.19;;;2.59;64.86
9225;BME280;4647;48.072;11.616;2023-02-12T03:33:19;97096.44;;;2.88;65.06
9225;BME280;4647;48.072;11.616;2023-02-12T03:35:54;97068.38;;;2.77;65.00
9225;BME280;4647;48.072;11.616;2023-02-12T03:38:32;97066.81;;;2.76;64.77
9225;BME280;4647;48.072;11.616;2023-02-12T03:41:04;97022.41;;;2.75;64.32
9225;BME280;4647;48.072;11.616;2023-02-12T03:43:44;97074.81;;;3.02;64.19
9225;BME280;4647;48.072;11.616;2023-02-12T03:46:19;97044.13;;;3.08;63.96
9225;BME280;4647;48.072;11.616;2023-02-12T03:48:59;97048.72;;;2.90;64.58
9225;BME280;4647;48.072;11.616;2023-02-12T03:51:33;97084.56;;;3.24;64.74
9225;BME280;4647;48.072;11.616;2023-02-12T03:54:03;97058.63;;;2.98;64.21
9225;BME280;4647;48.072;11.616;2023-02-12T03:56:37;97101.56;;;3.28;64.41
9225;BME280;4647;48.072;11.616;2023-02-12T03:59:06;97058.44;;;3.03;64.28
9225;BME280;4647;48.072;11.616;2023-02-12T04:01:35;97066.31;;;3.00;64.33
9225;BME280;4647;48.072;11.616;2023-02-12T04:04:07;97101.31;;;3.12;64.97
9225;BME280;4647;48.072;11.616;2023-02-12T04:06:36;97099.88;;;3.15;64.65
9225;BME280;4647;48.072;11.616;2023-02-12T04:09:08;97065.56;;;3.08;64.22
9225;BME280;4647;48.072;11.616;2023-02-12T04:11:46;97059.88;;;3.10;64.26
9225;BME280;4647;48.072;11.616;2023-02-12T04:14:26;97065.25;;;2.92;64.44
9225;BME280;4647;48.072;11.616;2023-02-12T04:17:00;97076.56;;;3.06;64.20
9225;BME280;4647;48.072;11.616;2023-02-12T04:19:39;97021.16;;;2.81;64.29
9225;BME280;4647;48.072;11.616;2023-02-12T04:22:25;97094.66;;;3.18;64.43
9225;BME280;4647;48.072;11.616;2023-02-12T04:25:00;97094.50;;;3.32;64.48
9225;BME280;4647;48.072;11.616;2023-02-12T04:27:36;97069.31;;;2.98;64.63
9225;BME280;4647;48.072;11.616;2023-02-12T04:30:15;97112.44;;;3.40;64.54
9225;BME280;4647;48.072;11.616;2023-02-12T04:32:49;97117.63;;;3.45;64.53
9225;BME280;4647;48.072;11.616;2023-02-12T04:35:25;97080.94;;;3.37;63.80
9225;BME280;4647;48.072;11.616;2023-02-12T04:38:01;97076.88;;;3.14;64.50
9225;BME280;4647;48.072;11.616;2023-02-12T04:40:31;97077.66;;;3.05;65.15
9225;BME280;4647;48.072;11.616;2023-02-12T04:43:00;97115.44;;;3.30;65.10
9225;BME280;4647;48.072;11.616;2023-02-12T04:45:30;97113.88;;;3.29;65.03
9225;BME280;4647;48.072;11.616;2023-02-12T04:48:00;97120.63;;;3.44;64.83
9225;BME280;4647;48.072;11.616;2023-02-12T04:50:37;97098.28;;;3.22;64.72
9225;BME280;4647;48.072;11.616;2023-02-12T04:53:06;97141.25;;;3.52;64.56
9225;BME280;4647;48.072;11.616;2023-02-12T04:55:35;97095.78;;;3.00;65.21
9225;BME280;4647;48.072;11.616;2023-02-12T04:58:04;97135.16;;;3.17;65.66
9225;BME280;4647;48.072;11.616;2023-02-12T05:00:33;97137.03;;;3.07;65.78
9225;BME280;4647;48.072;11.616;2023-02-12T05:03:01;97108.88;;;3.10;65.52
9225;BME280;4647;48.072;11.616;2023-02-12T05:05:33;97132.63;;;3.29;65.00
9225;BME280;4647;48.072;11.616;2023-02-12T05:08:02;97134.38;;;3.33;65.01
9225;BME280;4647;48.072;11.616;2023-02-12T05:10:31;97137.19;;;3.37;65.05
9225;BME280;4647;48.072;11.616;2023-02-12T05:12:59;97139.41;;;3.35;65.01
9225;BME280;4647;48.072;11.616;2023-02-12T05:15:28;97137.84;;;3.34;65.24
9225;BME280;4647;48.072;11.616;2023-02-12T05:17:56;97140.03;;;3.41;65.08
9225;BME280;4647;48.072;11.616;2023-02-12T05:20:25;97147.44;;;3.35;65.46
9225;BME280;4647;48.072;11.616;2023-02-12T05:22:56;97150.25;;;3.30;65.93
9225;BME280;4647;48.072;11.616;2023-02-12T05:25:24;97158.00;;;3.23;66.26
9225;BME280;4647;48.072;11.616;2023-02-12T05:27:52;97148.09;;;3.32;66.02
9225;BME280;4647;48.072;11.616;2023-02-12T05:30:21;97145.41;;;3.32;65.94
9225;BME280;4647;48.072;11.616;2023-02-12T05:32:50;97152.66;;;3.31;65.98
9225;BME280;4647;48.072;11.616;2023-02-12T05:35:18;97151.53;;;3.24;66.33
9225;BME280;4647;48.072;11.616;2023-02-12T05:37:47;97156.91;;;3.32;66.45
9225;BME280;4647;48.072;11.616;2023-02-12T05:40:18;97121.16;;;3.11;66.70
9225;BME280;4647;48.072;11.616;2023-02-12T05:42:46;97152.00;;;3.34;66.68
9225;BME280;4647;48.072;11.616;2023-02-12T05:45:15;97162.25;;;3.41;65.91
9225;BME280;4647;48.072;11.616;2023-02-12T05:47:44;97154.22;;;3.32;66.14
9225;BME280;4647;48.072;11.616;2023-02-12T05:50:12;97163.34;;;3.23;66.55
9225;BME280;4647;48.072;11.616;2023-02-12T05:52:41;97166.03;;;3.31;66.21
9225;BME280;4647;48.072;11.616;2023-02-12T05:55:09;97161.47;;;3.32;66.22
9225;BME280;4647;48.072;11.616;2023-02-12T05:57:40;97153.59;;;3.18;66.58
9225;BME280;4647;48.072;11.616;2023-02-12T06:00:10;97150.75;;;2.89;67.41
9225;BME280;4647;48.072;11.616;2023-02-12T06:02:39;97142.38;;;3.07;66.59
9225;BME280;4647;48.072;11.616;2023-02-12T06:05:07;97145.22;;;3.02;66.25
9225;BME280;4647;48.072;11.616;2023-02-12T06:07:36;97160.03;;;3.26;65.75
9225;BME280;4647;48.072;11.616;2023-02-12T06:10:06;97157.84;;;3.36;65.60
9225;BME280;4647;48.072;11.616;2023-02-12T06:12:35;97149.97;;;3.23;65.88
9225;BME280;4647;48.072;11.616;2023-02-12T06:15:07;97164.63;;;3.34;65.78
9225;BME280;4647;48.072;11.616;2023-02-12T06:17:35;97172.03;;;3.37;65.50
9225;BME280;4647;48.072;11.616;2023-02-12T06:20:04;97174.53;;;3.42;65.33
9225;BME280;4647;48.072;11.616;2023-02-12T06:22:33;97172.47;;;3.30;65.82
9225;BME280;4647;48.072;11.616;2023-02-12T06:25:03;97178.16;;;3.37;65.98
9225;BME280;4647;48.072;11.616;2023-02-12T06:27:31;97179.75;;;3.38;65.95
9225;BME280;4647;48.072;11.616;2023-02-12T06:30:00;97180.84;;;3.46;65.23
9225;BME280;4647;48.072;11.616;2023-02-12T06:32:31;97177.97;;;3.51;64.46
9225;BME280;4647;48.072;11.616;2023-02-12T06:35:00;97186.84;;;3.34;64.99
9225;BME280;4647;48.072;11.616;2023-02-12T06:37:28;97183.22;;;3.39;64.93
9225;BME280;4647;48.072;11.616;2023-02-12T06:39:57;97184.44;;;3.50;64.78
9225;BME280;4647;48.072;11.616;2023-02-12T06:42:25;97186.19;;;3.63;64.60
9225;BME280;4647;48.072;11.616;2023-02-12T06:44:53;97186.97;;;3.47;65.07
9225;BME280;4647;48.072;11.616;2023-02-12T06:47:22;97190.91;;;3.58;63.63
9225;BME280;4647;48.072;11.616;2023-02-12T06:49:53;97194.38;;;3.58;63.93
9225;BME280;4647;48.072;11.616;2023-02-12T06:52:21;97193.41;;;3.72;63.23
9225;BME280;4647;48.072;11.616;2023-02-12T06:54:50;97194.72;;;3.57;63.33
9225;BME280;4647;48.072;11.616;2023-02-12T06:57:18;97196.88;;;3.55;63.25
9225;BME280;4647;48.072;11.616;2023-02-12T06:59:48;97193.75;;;3.61;63.19
9225;BME280;4647;48.072;11.616;2023-02-12T07:02:16;97189.50;;;3.43;63.29
9225;BME280;4647;48.072;11.616;2023-02-12T07:04:44;97195.03;;;3.38;63.44
9225;BME280;4647;48.072;11.616;2023-02-12T07:07:15;97198.50;;;3.38;63.91
9225;BME280;4647;48.072;11.616;2023-02-12T07:09:44;97196.91;;;3.63;63.10
9225;BME280;4647;48.072;11.616;2023-02-12T07:12:12;97206.53;;;3.56;63.49
9225;BME280;4647;48.072;11.616;2023-02-12T07:14:41;97204.28;;;3.75;63.16
9225;BME280;4647;48.072;11.616;2023-02-12T07:17:09;97202.56;;;3.70;62.95
9225;BME280;4647;48.072;11.616;2023-02-12T07:19:38;97206.91;;;4.01;62.46
9225;BME280;4647;48.072;11.616;2023-02-12T07:22:06;97203.84;;;4.20;61.92
9225;BME280;4647;48.072;11.616;2023-02-12T07:24:37;97201.63;;;4.30;61.32
9225;BME280;4647;48.072;11.616;2023-02-12T07:27:06;97202.56;;;4.35;61.25
9225;BME280;4647;48.072;11.616;2023-02-12T07:29:34;97195.81;;;4.28;61.30
9225;BME280;4647;48.072;11.616;2023-02-12T07:32:03;97166.38;;;4.03;61.10
9225;BME280;4647;48.072;11.616;2023-02-12T07:34:32;97194.69;;;4.29;61.01
9225;BME280;4647;48.072;11.616;2023-02-12T07:37:00;97192.34;;;4.28;61.01
9225;BME280;4647;48.072;11.616;2023-02-12T07:39:28;97179.44;;;4.13;61.10
9225;BME280;4647;48.072;11.616;2023-02-12T07:41:59;97190.56;;;4.32;60.71
9225;BME280;4647;48.072;11.616;2023-02-12T07:44:28;97185.59;;;4.51;59.62
9225;BME280;4647;48.072;11.616;2023-02-12T07:46:58;97188.41;;;4.55;59.49
9225;BME280;4647;48.072;11.616;2023-02-12T07:49:28;97187.84;;;4.70;59.48
9225;BME280;4647;48.072;11.616;2023-02-12T07:51:56;97188.59;;;4.79;58.81
9225;BME280;4647;48.072;11.616;2023-02-12T07:54:25;97177.69;;;5.05;58.18
9225;BME280;4647;48.072;11.616;2023-02-12T07:56:53;97173.81;;;5.15;57.42
9225;BME280;4647;48.072;11.616;2023-02-12T07:59:25;97175.59;;;5.32;56.77
9225;BME280;4647;48.072;11.616;2023-02-12T08:01:54;97175.34;;;5.24;56.73
9225;BME280;4647;48.072;11.616;2023-02-12T08:04:25;97176.06;;;5.13;56.74
9225;BME280;4647;48.072;11.616;2023-02-12T08:06:54;97178.81;;;5.25;56.43
9225;BME280;4647;48.072;11.616;2023-02-12T08:09:25;97183.19;;;5.30;56.13
9225;BME280;4647;48.072;11.616;2023-02-12T08:11:55;97181.81;;;5.03;56.79
9225;BME280;4647;48.072;11.616;2023-02-12T08:14:26;97180.84;;;4.57;58.72
9225;BME280;4647;48.072;11.616;2023-02-12T08:16:55;97171.44;;;4.92;57.98
9225;BME280;4647;48.072;11.616;2023-02-12T08:19:23;97173.81;;;5.15;58.35
9225;BME280;4647;48.072;11.616;2023-02-12T08:21:53;97178.28;;;5.32;58.29
9225;BME280;4647;48.072;11.616;2023-02-12T08:24:23;97184.19;;;5.79;57.88
9225;BME280;4647;48.072;11.616;2023-02-12T08:26:52;97179.19;;;5.90;57.69
9225;BME280;4647;48.072;11.616;2023-02-12T08:29:22;97183.94;;;5.93;57.67
9225;BME280;4647;48.072;11.616;2023-02-12T08:31:57;97187.19;;;5.98;57.38
9225;BME280;4647;48.072;11.616;2023-02-12T08:34:28;97184.25;;;5.91;57.02
9225;BME280;4647;48.072;11.616;2023-02-12T08:36:57;97188.34;;;5.89;58.85
9225;BME280;4647;48.072;11.616;2023-02-12T08:39:28;97176.44;;;5.98;59.72
9225;BME280;4647;48.072;11.616;2023-02-12T08:41:57;97174.09;;;6.09;58.78
9225;BME280;4647;48.072;11.616;2023-02-12T08:44:26;97172.88;;;6.31;58.58
9225;BME280;4647;48.072;11.616;2023-02-12T08:46:57;97172.56;;;6.69;58.65
9225;BME280;4647;48.072;11.616;2023-02-12T08:49:27;97175.47;;;6.76;59.10
9225;BME280;4647;48.072;11.616;2023-02-12T08:51:58;97172.66;;;6.85;58.35
9225;BME280;4647;48.072;11.616;2023-02-12T08:54:29;97174.72;;;6.39;60.53
9225;BME280;4647;48.072;11.616;2023-02-12T08:56:59;97176.59;;;6.38;63.18
9225;BME280;4647;48.072;11.616;2023-02-12T08:59:28;97175.00;;;6.37;64.55
9225;BME280;4647;48.072;11.616;2023-02-12T09:02:00;97176.13;;;6.36;65.34
9225;BME280;4647;48.072;11.616;2023-02-12T09:04:28;97166.63;;;6.63;64.38
9225;BME280;4647;48.072;11.616;2023-02-12T09:06:57;97170.91;;;6.64;64.02
9225;BME280;4647;48.072;11.616;2023-02-12T09:09:25;97178.16;;;6.88;63.18
9225;BME280;4647;48.072;11.616;2023-02-12T09:11:54;97172.34;;;6.74;63.99
9225;BME280;4647;48.072;11.616;2023-02-12T09:14:23;97183.63;;;7.16;62.83
9225;BME280;4647;48.072;11.616;2023-02-12T09:16:52;97175.41;;;7.25;62.33
9225;BME280;4647;48.072;11.616;2023-02-12T09:19:25;97179.22;;;7.24;62.44
9225;BME280;4647;48.072;11.616;2023-02-12T09:21:54;97180.19;;;7.31;62.06
9225;BME280;4647;48.072;11.616;2023-02-12T09:24:23;97174.31;;;7.01;62.91
9225;BME280;4647;48.072;11.616;2023-02-12T09:26:52;97186.75;;;7.18;62.29
9225;BME280;4647;48.072;11.616;2023-02-12T09:29:20;97189.47;;;7.18;62.35
9225;BME280;4647;48.072;11.616;2023-02-12T09:31:49;97191.16;;;7.11;62.58
9225;BME280;4647;48.072;11.616;2023-02-12T09:34:17;97189.84;;;6.80;62.98
9225;BME280;4647;48.072;11.616;2023-02-12T09:36:50;97175.78;;;7.11;62.33
9225;BME280;4647;48.072;11.616;2023-02-12T09:39:19;97181.94;;;7.52;61.12
9225;BME280;4647;48.072;11.616;2023-02-12T09:42:08;97187.53;;;7.19;62.73
9225;BME280;4647;48.072;11.616;2023-02-12T09:44:45;97189.25;;;7.79;61.54
9225;BME280;4647;48.072;11.616;2023-02-12T09:47:22;97192.41;;;7.81;61.92
9225;BME280;4647;48.072;11.616;2023-02-12T09:50:11;97186.53;;;8.23;61.13
9225;BME280;4647;48.072;11.616;2023-02-12T09:52:47;97185.38;;;8.36;60.95
9225;BME280;4647;48.072;11.616;2023-02-12T09:55:17;97193.56;;;7.96;61.82
9225;BME280;4647;48.072;11.616;2023-02-12T09:57:46;97190.34;;;7.62;62.73
9225;BME280;4647;48.072;11.616;2023-02-12T10:00:20;97185.28;;;7.21;64.44
9225;BME280;4647;48.072;11.616;2023-02-12T10:02:51;97199.63;;;7.37;63.99
9225;BME280;4647;48.072;11.616;2023-02-12T10:05:24;97196.28;;;7.28;64.61
9225;BME280;4647;48.072;11.616;2023-02-12T10:08:09;97193.28;;;7.57;63.82
9225;BME280;4647;48.072;11.616;2023-02-12T10:10:50;97181.56;;;7.37;63.96
9225;BME280;4647;48.072;11.616;2023-02-12T10:13:29;97188.81;;;7.49;64.14
9225;BME280;4647;48.072;11.616;2023-02-12T10:16:09;97193.81;;;7.35;64.57
9225;BME280;4647;48.072;11.616;2023-02-12T10:18:53;97192.06;;;7.15;65.60
9225;BME280;4647;48.072;11.616;2023-02-12T10:21:44;97192.59;;;7.08;65.69
9225;BME280;4647;48.072;11.616;2023-02-12T10:24:39;97190.72;;;6.84;66.87
9225;BME280;4647;48.072;11.616;2023-02-12T10:27:15;97192.88;;;6.78;66.72
9225;BME280;4647;48.072;11.616;2023-02-12T10:29:45;97195.44;;;6.75;67.59
9225;BME280;4647;48.072;11.616;2023-02-12T10:32:22;97190.38;;;6.86;67.02
9225;BME280;4647;48.072;11.616;2023-02-12T10:34:54;97183.13;;;6.50;67.71
9225;BME280;4647;48.072;11.616;2023-02-12T10:37:29;97180.41;;;6.74;66.88
9225;BME280;4647;48.072;11.616;2023-02-12T10:40:05;97194.66;;;6.62;68.08
9225;BME280;4647;48.072;11.616;2023-02-12T10:42:44;97184.47;;;6.68;67.48
9225;BME280;4647;48.072;11.616;2023-02-12T10:45:15;97180.97;;;6.55;68.14
9225;BME280;4647;48.072;11.616;2023-02-12T10:47:45;97178.28;;;6.80;67.24
9225;BME280;4647;48.072;11.616;2023-02-12T10:50:20;97186.94;;;6.73;67.55
9225;BME280;4647;48.072;11.616;2023-02-12T10:52:55;97191.31;;;6.65;67.50
9225;BME280;4647;48.072;11.616;2023-02-12T10:55:30;97191.53;;;6.72;67.35
9225;BME280;4647;48.072;11.616;2023-02-12T10:58:01;97186.13;;;6.97;67.09
9225;BME280;4647;48.072;11.616;2023-02-12T11:00:32;97167.94;;;6.94;66.95
9225;BME280;4647;48.072;11.616;2023-02-12T11:03:05;97170.97;;;7.32;66.18
9225;BME280;4647;48.072;11.616;2023-02-12T11:05:47;97182.16;;;7.59;64.64
9225;BME280;4647;48.072;11.616;2023-02-12T11:08:28;97182.94;;;7.19;65.51
9225;BME280;4647;48.072;11.616;2023-02-12T11:11:07;97181.28;;;7.15;66.31
9225;BME280;4647;48.072;11.616;2023-02-12T11:13:38;97186.06;;;7.21;66.12
9225;BME280;4647;48.072;11.616;2023-02-12T11:16:07;97177.03;;;6.89;67.09
9225;BME280;4647;48.072;11.616;2023-02-12T11:18:36;97175.13;;;6.90;67.05
9225;BME280;4647;48.072;11.616;2023-02-12T11:21:07;97174.34;;;6.89;67.43
9225;BME280;4647;48.072;11.616;2023-02-12T11:23:38;97174.41;;;7.17;66.62
9225;BME280;4647;48.072;11.616;2023-02-12T11:26:23;97169.06;;;6.93;67.29
9225;BME280;4647;48.072;11.616;2023-02-12T11:28:53;97166.13;;;7.10;67.57
9225;BME280;4647;48.072;11.616;2023-02-12T11:31:26;97168.38;;;6.96;67.18
9225;BME280;4647;48.072;11.616;2023-02-12T11:34:07;97172.78;;;6.88;67.81
9225;BME280;4647;48.072;11.616;2023-02-12T11:36:38;97167.81;;;7.02;67.44
9225;BME280;4647;48.072;11.616;2023-02-12T11:39:17;97159.38;;;7.04;67.22
9225;BME280;4647;48.072;11.616;2023-02-12T11:41:52;97160.25;;;7.08;67.21
9225;BME280;4647;48.072;11.616;2023-02-12T11:44:25;97162.56;;;6.94;67.19
9225;BME280;4647;48.072;11.616;2023-02-12T11:46:56;97150.09;;;6.89;67.61
9225;BME280;4647;48.072;11.616;2023-02-12T11:49:27;97158.72;;;6.83;67.94
9225;BME280;4647;48.072;11.616;2023-02-12T11:51:59;97159.59;;;7.11;67.69
9225;BME280;4647;48.072;11.616;2023-02-12T11:54:31;97161.22;;;6.88;67.98
9225;BME280;4647;48.072;11.616;2023-02-12T11:57:05;97133.13;;;7.01;66.82
9225;BME280;4647;48.072;11.616;2023-02-12T11:59:36;97161.03;;;7.08;67.30
9225;BME280;4647;48.072;11.616;2023-02-12T12:02:17;97150.34;;;7.52;65.84
9225;BME280;4647;48.072;11.616;2023-02-12T12:04:53;97141.56;;;7.27;66.31
9225;BME280;4647;48.072;11.616;2023-02-12T12:07:26;97150.78;;;7.26;66.27
9225;BME280;4647;48.072;11.616;2023-02-12T12:10:00;97150.44;;;7.28;65.93
9225;BME280;4647;48.072;11.616;2023-02-12T12:12:37;97140.69;;;7.51;65.89
9225;BME280;4647;48.072;11.616;2023-02-12T12:15:14;97140.00;;;7.54;65.15
9225;BME280;4647;48.072;11.616;2023-02-12T12:18:00;97140.00;;;7.54;64.66
9225;BME280;4647;48.072;11.616;2023-02-12T12:20:51;97133.78;;;7.66;64.50
9225;BME280;4647;48.072;11.616;2023-02-12T12:23:25;97124.00;;;7.89;64.22
9225;BME280;4647;48.072;11.616;2023-02-12T12:26:01;97120.34;;;7.82;63.87
9225;BME280;4647;48.072;11.616;2023-02-12T12:28:40;97133.25;;;7.60;64.56
9225;BME280;4647;48.072;11.616;2023-02-12T12:31:11;97127.44;;;7.74;64.37
9225;BME280;4647;48.072;11.616;2023-02-12T12:33:43;97120.03;;;7.71;64.37
9225;BME280;4647;48.072;11.616;2023-02-12T12:36:30;97121.69;;;7.76;63.90
9225;BME280;4647;48.072;11.616;2023-02-12T12:39:13;97128.16;;;8.02;63.33
9225;BME280;4647;48.072;11.616;2023-02-12T12:42:05;97122.97;;;8.10;62.89
9225;BME280;4647;48.072;11.616;2023-02-12T12:44:53;97125.28;;;7.95;63.23
9225;BME280;4647;48.072;11.616;2023-02-12T12:47:34;97103.78;;;7.83;63.24
9225;BME280;4647;48.072;11.616;2023-02-12T12:50:23;97121.41;;;8.40;61.83
9225;BME280;4647;48.072;11.616;2023-02-12T12:53:14;97108.75;;;8.60;61.30
9225;BME280;4647;48.072;11.616;2023-02-12T12:55:59;97116.66;;;8.69;61.08
9225;BME280;4647;48.072;11.616;2023-02-12T12:58:43;97111.31;;;8.37;62.20
9225;BME280;4647;48.072;11.616;2023-02-12T13:01:45;97114.50;;;8.27;62.54
9225;BME280;4647;48.072;11.616;2023-02-12T13:04:36;97109.38;;;8.22;62.89
9225;BME280;4647;48.072;11.616;2023-02-12T13:07:18;97109.53;;;7.97;63.47
9225;BME280;4647;48.072;11.616;2023-02-12T13:10:01;97114.75;;;8.22;63.24
9225;BME280;4647;48.072;11.616;2023-02-12T13:12:44;97108.66;;;8.25;62.84
9225;BME280;4647;48.072;11.616;2023-02-12T13:15:24;97112.06;;;8.22;62.80
9225;BME280;4647;48.072;11.616;2023-02-12T13:18:06;97108.84;;;8.32;62.55
9225;BME280;4647;48.072;11.616;2023-02-12T13:20:46;97117.19;;;8.27;62.34
9225;BME280;4647;48.072;11.616;2023-02-12T13:23:22;97114.50;;;8.11;63.65
9225;BME280;4647;48.072;11.616;2023-02-12T13:26:00;97102.59;;;8.12;63.64
9225;BME280;4647;48.072;11.616;2023-02-12T13:28:33;97081.69;;;7.93;63.67
9225;BME280;4647;48.072;11.616;2023-02-12T13:31:06;97094.03;;;7.94;63.87
9225;BME280;4647;48.072;11.616;2023-02-12T13:33:41;97098.44;;;7.71;64.92
9225;BME280;4647;48.072;11.616;2023-02-12T13:36:12;97100.41;;;7.86;64.59
9225;BME280;4647;48.072;11.616;2023-02-12T13:38:46;97098.41;;;7.55;65.40
9225;BME280;4647;48.072;11.616;2023-02-12T13:41:15;97097.63;;;7.55;65.40
9225;BME280;4647;48.072;11.616;2023-02-12T13:43:59;97097.50;;;7.79;65.04
9225;BME280;4647;48.072;11.616;2023-02-12T13:46:37;97099.69;;;7.74;65.30
9225;BME280;4647;48.072;11.616;2023-02-12T13:49:21;97091.31;;;7.79;65.27
9225;BME280;4647;48.072;11.616;2023-02-12T13:52:00;97094.22;;;7.86;64.79
9225;BME280;4647;48.072;11.616;2023-02-12T13:54:43;97095.06;;;7.74;65.66
9225;BME280;4647;48.072;11.616;2023-02-12T13:57:16;97099.25;;;7.87;65.02